createdAt,value
2022-10-23T00:01:26.460Z,4.28
2022-10-23T00:03:58.526Z,3.72
2022-10-23T00:06:27.742Z,4.18
2022-10-23T00:08:56.455Z,3.97
2022-10-23T00:11:26.744Z,3.78
2022-10-23T00:13:57.211Z,3.58
2022-10-23T00:16:25.436Z,3.58
2022-10-23T00:18:55.177Z,4.25
2022-10-23T00:21:23.567Z,4.35
2022-10-23T00:23:51.889Z,3.67
2022-10-23T00:26:20.475Z,4.57
2022-10-23T00:28:51.158Z,3.75
2022-10-23T00:31:20.066Z,4.03
2022-10-23T00:33:48.977Z,3.78
2022-10-23T00:36:20.985Z,4.35
2022-10-23T00:38:49.526Z,4.35
2022-10-23T00:41:21.041Z,4.65
2022-10-23T00:44:06.573Z,4.03
2022-10-23T00:46:35.562Z,4.15
2022-10-23T00:49:04.432Z,4.75
2022-10-23T00:51:38.165Z,4.22
2022-10-23T00:56:59.571Z,3.97
2022-10-23T00:59:28.402Z,3.90
2022-10-23T01:01:57.314Z,5.05
2022-10-23T01:04:26.812Z,4.90
2022-10-23T01:07:04.910Z,4.25
2022-10-23T01:09:38.957Z,4.32
2022-10-23T01:12:16.602Z,3.90
2022-10-23T01:14:58.518Z,3.70
2022-10-23T01:17:34.788Z,4.00
2022-10-23T01:20:15.315Z,3.63
2022-10-23T01:23:06.325Z,4.18
2022-10-23T01:25:58.067Z,4.07
2022-10-23T01:28:31.470Z,3.83
2022-10-23T01:31:03.143Z,3.63
2022-10-23T01:33:35.198Z,3.45
2022-10-23T01:36:06.054Z,3.90
2022-10-23T01:38:42.463Z,3.97
2022-10-23T01:41:17.454Z,3.65
2022-10-23T01:43:54.056Z,3.75
2022-10-23T01:46:25.001Z,3.80
2022-10-23T01:48:56.273Z,3.50
2022-10-23T01:51:28.528Z,3.58
2022-10-23T01:53:59.578Z,4.28
2022-10-23T01:56:36.685Z,4.03
2022-10-23T01:59:10.911Z,3.45
2022-10-23T02:01:43.298Z,3.60
2022-10-23T02:04:15.459Z,4.18
2022-10-23T02:06:43.859Z,3.63
2022-10-23T02:09:12.326Z,4.18
2022-10-23T02:11:48.091Z,3.88
2022-10-23T02:14:23.814Z,4.07
2022-10-23T02:16:54.198Z,4.00
2022-10-23T02:19:30.614Z,3.67
2022-10-23T02:22:07.779Z,3.65
2022-10-23T02:24:40.584Z,3.88
2022-10-23T02:27:13.986Z,3.92
2022-10-23T02:29:48.396Z,4.47
2022-10-23T02:32:19.079Z,4.07
2022-10-23T02:34:47.365Z,4.57
2022-10-23T02:37:16.224Z,3.72
2022-10-23T02:39:44.808Z,3.42
2022-10-23T02:42:22.161Z,3.97
2022-10-23T02:45:02.482Z,3.70
2022-10-23T02:47:46.165Z,3.92
2022-10-23T02:50:25.812Z,4.10
2022-10-23T02:53:00.939Z,4.50
2022-10-23T02:55:40.285Z,3.53
2022-10-23T02:58:15.487Z,3.78
2022-10-23T03:00:50.450Z,4.15
2022-10-23T03:03:22.801Z,3.55
2022-10-23T03:05:51.293Z,3.83
2022-10-23T03:08:19.546Z,4.00
2022-10-23T03:13:16.919Z,4.00
2022-10-23T03:15:46.622Z,3.70
2022-10-23T03:18:14.892Z,3.60
2022-10-23T03:20:43.113Z,3.97
2022-10-23T03:23:14.579Z,3.72
2022-10-23T03:25:42.790Z,4.10
2022-10-23T03:28:11.092Z,3.83
2022-10-23T03:30:39.341Z,3.85
2022-10-23T03:33:09.026Z,4.00
2022-10-23T03:35:37.497Z,3.95
2022-10-23T03:38:05.734Z,3.67
2022-10-23T03:40:34.043Z,3.88
2022-10-23T03:43:02.390Z,4.18
2022-10-23T03:45:31.034Z,4.22
2022-10-23T03:47:59.450Z,3.72
2022-10-23T03:50:29.342Z,3.90
2022-10-23T03:52:57.666Z,3.75
2022-10-23T03:55:27.273Z,3.75
2022-10-23T03:57:55.570Z,3.88
2022-10-23T04:00:23.861Z,3.78
2022-10-23T04:02:52.093Z,3.97
2022-10-23T04:05:20.456Z,3.80
2022-10-23T04:07:50.143Z,3.83
2022-10-23T04:10:18.613Z,4.18
2022-10-23T04:12:46.827Z,4.07
2022-10-23T04:15:15.057Z,3.85
2022-10-23T04:17:43.333Z,4.28
2022-10-23T04:20:11.774Z,3.90
2022-10-23T04:22:40.321Z,3.83
2022-10-23T04:25:10.905Z,3.75
2022-10-23T04:27:39.112Z,4.38
2022-10-23T04:30:08.658Z,3.83
2022-10-23T04:32:37.135Z,3.53
2022-10-23T04:35:06.159Z,3.83
2022-10-23T04:37:34.350Z,4.30
2022-10-23T04:40:02.616Z,4.45
2022-10-23T04:42:32.274Z,3.78
2022-10-23T04:45:00.525Z,4.00
2022-10-23T04:47:28.842Z,3.97
2022-10-23T04:49:57.100Z,3.83
2022-10-23T04:52:25.330Z,4.10
2022-10-23T04:54:53.791Z,4.47
2022-10-23T04:57:22.063Z,4.28
2022-10-23T04:59:51.759Z,3.55
2022-10-23T05:02:19.966Z,4.43
2022-10-23T05:04:48.182Z,3.40
2022-10-23T05:07:16.481Z,4.47
2022-10-23T05:09:44.923Z,4.05
2022-10-23T05:12:13.206Z,4.40
2022-10-23T05:14:41.411Z,3.53
2022-10-23T05:17:16.421Z,3.90
2022-10-23T05:19:50.117Z,5.23
2022-10-23T05:22:19.635Z,4.67
2022-10-23T05:24:50.473Z,4.77
2022-10-23T05:27:19.165Z,3.95
2022-10-23T05:29:47.405Z,4.30
2022-10-23T05:32:18.377Z,3.90
2022-10-23T05:34:46.934Z,4.53
2022-10-23T05:37:17.469Z,4.53
2022-10-23T05:39:45.698Z,4.65
2022-10-23T05:42:14.063Z,4.50
2022-10-23T05:44:42.604Z,4.63
2022-10-23T05:47:10.819Z,4.43
2022-10-23T05:49:40.521Z,4.50
2022-10-23T05:52:11.536Z,4.55
2022-10-23T05:54:39.871Z,5.50
2022-10-23T05:57:08.277Z,4.32
2022-10-23T05:59:36.561Z,4.03
2022-10-23T06:02:04.931Z,4.63
2022-10-23T06:04:34.954Z,4.20
2022-10-23T06:07:05.031Z,5.18
2022-10-23T06:09:33.631Z,4.80
2022-10-23T06:12:03.075Z,5.33
2022-10-23T06:14:31.229Z,5.10
2022-10-23T06:16:59.483Z,4.90
2022-10-23T06:19:27.690Z,4.87
2022-10-23T06:21:56.047Z,4.93
2022-10-23T06:24:25.825Z,4.80
2022-10-23T06:26:54.024Z,6.07
2022-10-23T06:29:22.398Z,4.70
2022-10-23T06:31:50.609Z,5.60
2022-10-23T06:34:19.037Z,5.07
2022-10-23T06:36:47.277Z,5.32
2022-10-23T06:39:15.522Z,4.82
2022-10-23T06:41:45.532Z,5.07
2022-10-23T06:44:13.768Z,4.95
2022-10-23T06:46:42.143Z,5.22
2022-10-23T06:49:10.395Z,5.27
2022-10-23T06:51:38.591Z,5.38
2022-10-23T06:54:06.914Z,5.10
2022-10-23T06:56:35.296Z,4.82
2022-10-23T06:59:07.793Z,6.22
2022-10-23T07:01:36.620Z,5.60
2022-10-23T07:04:04.951Z,5.57
2022-10-23T07:06:33.171Z,5.97
2022-10-23T07:09:01.585Z,6.00
2022-10-23T07:11:29.986Z,5.53
2022-10-23T07:13:58.191Z,5.80
2022-10-23T07:16:28.273Z,5.93
2022-10-23T07:18:59.663Z,5.85
2022-10-23T07:21:28.590Z,6.22
2022-10-23T07:23:56.990Z,6.05
2022-10-23T07:26:25.900Z,6.45
2022-10-23T07:28:55.256Z,5.38
2022-10-23T07:31:27.182Z,5.55
2022-10-23T07:33:58.026Z,5.70
2022-10-23T07:36:26.285Z,5.75
2022-10-23T07:38:54.559Z,5.80
2022-10-23T07:41:23.172Z,5.75
2022-10-23T07:43:51.385Z,6.57
2022-10-23T07:46:19.940Z,5.97
2022-10-23T07:48:48.216Z,6.45
2022-10-23T07:51:18.266Z,7.03
2022-10-23T07:53:46.452Z,5.13
2022-10-23T07:56:17.139Z,6.70
2022-10-23T07:58:45.696Z,6.32
2022-10-23T08:01:19.775Z,6.30
2022-10-23T08:03:48.111Z,7.03
2022-10-23T08:06:17.813Z,6.47
2022-10-23T08:08:46.196Z,5.88
2022-10-23T08:11:16.069Z,6.28
2022-10-23T08:13:44.382Z,5.97
2022-10-23T08:16:12.647Z,5.80
2022-10-23T08:18:42.765Z,5.75
2022-10-23T08:21:12.353Z,6.15
2022-10-23T08:23:42.035Z,5.72
2022-10-23T08:26:11.242Z,5.55
2022-10-23T08:28:39.499Z,6.18
2022-10-23T08:31:10.135Z,5.65
2022-10-23T08:33:39.152Z,5.05
2022-10-23T08:36:16.453Z,6.43
2022-10-23T08:38:46.204Z,5.90
2022-10-23T08:41:25.127Z,7.60
2022-10-23T08:43:58.009Z,5.78
2022-10-23T08:46:31.154Z,4.90
2022-10-23T08:49:10.141Z,4.85
2022-10-23T08:51:43.882Z,5.15
2022-10-23T08:54:19.541Z,5.18
2022-10-23T08:56:52.504Z,4.53
2022-10-23T08:59:28.288Z,4.60
2022-10-23T09:02:01.789Z,5.65
2022-10-23T09:04:30.714Z,6.32
2022-10-23T09:07:10.450Z,5.03
2022-10-23T09:09:59.226Z,4.38
2022-10-23T09:12:30.254Z,4.57
2022-10-23T09:15:23.888Z,4.38
2022-10-23T09:17:58.912Z,3.58
2022-10-23T09:20:30.170Z,4.30
2022-10-23T09:23:01.312Z,4.13
2022-10-23T09:25:35.293Z,4.40
2022-10-23T09:28:05.775Z,4.68
2022-10-23T09:30:36.531Z,4.65
2022-10-23T09:33:16.519Z,3.95
2022-10-23T09:35:56.981Z,3.67
2022-10-23T09:38:30.435Z,3.30
2022-10-23T09:41:03.762Z,3.67
2022-10-23T09:43:32.017Z,3.35
2022-10-23T09:46:02.881Z,3.58
2022-10-23T09:48:31.349Z,3.70
2022-10-23T09:51:01.632Z,4.07
2022-10-23T09:53:38.580Z,3.83
2022-10-23T09:56:25.613Z,4.07
2022-10-23T09:58:57.574Z,3.33
2022-10-23T10:01:27.604Z,3.20
2022-10-23T10:03:57.288Z,3.63
2022-10-23T10:06:28.291Z,2.88
2022-10-23T10:08:59.055Z,3.25
2022-10-23T10:11:36.312Z,3.08
2022-10-23T10:14:29.725Z,2.88
2022-10-23T10:17:01.999Z,2.70
2022-10-23T10:19:46.682Z,3.10
2022-10-23T10:22:27.398Z,3.38
2022-10-23T10:25:02.958Z,2.92
2022-10-23T10:27:46.886Z,2.80
2022-10-23T10:30:19.385Z,3.28
2022-10-23T10:32:53.078Z,2.80
2022-10-23T10:35:27.816Z,3.63
2022-10-23T10:38:32.681Z,2.30
2022-10-23T10:41:26.376Z,2.88
2022-10-23T10:44:08.898Z,2.90
2022-10-23T10:46:45.823Z,3.10
2022-10-23T10:49:21.289Z,2.63
2022-10-23T10:52:00.099Z,2.80
2022-10-23T10:54:41.635Z,2.70
2022-10-23T10:57:18.811Z,2.67
2022-10-23T10:59:54.682Z,2.63
2022-10-23T11:02:28.798Z,2.60
2022-10-23T11:05:04.650Z,2.25
2022-10-23T11:07:42.645Z,2.85
2022-10-23T11:10:18.718Z,3.25
2022-10-23T11:12:49.184Z,2.97
2022-10-23T11:15:23.019Z,4.10
2022-10-23T11:17:54.976Z,3.55
2022-10-23T11:20:41.307Z,3.03
2022-10-23T11:23:26.292Z,2.83
2022-10-23T11:26:22.468Z,3.17
2022-10-23T11:29:04.290Z,3.75
2022-10-23T11:31:40.950Z,2.92
2022-10-23T11:34:41.177Z,4.03
2022-10-23T11:37:09.540Z,3.17
2022-10-23T11:39:40.519Z,3.33
2022-10-23T11:42:30.788Z,5.38
2022-10-23T11:44:59.153Z,3.33
2022-10-23T11:47:38.903Z,4.18
2022-10-23T11:50:27.122Z,3.42
2022-10-23T11:53:13.589Z,3.30
2022-10-23T11:55:59.163Z,3.65
2022-10-23T11:58:32.274Z,4.00
2022-10-23T12:01:05.114Z,3.67
2022-10-23T12:03:52.784Z,2.70
2022-10-23T12:06:26.096Z,2.70
2022-10-23T12:09:00.044Z,2.72
2022-10-23T12:11:41.318Z,2.67
2022-10-23T12:14:28.926Z,2.65
2022-10-23T12:16:57.346Z,2.40
2022-10-23T12:19:29.310Z,2.47
2022-10-23T12:22:01.841Z,2.75
2022-10-23T12:24:44.312Z,3.78
2022-10-23T12:27:22.219Z,3.17
2022-10-23T12:30:01.482Z,2.55
2022-10-23T12:32:42.889Z,2.80
2022-10-23T12:35:43.374Z,2.40
2022-10-23T12:38:16.409Z,6.18
2022-10-23T12:40:46.821Z,2.17
2022-10-23T12:43:26.351Z,2.08
2022-10-23T12:45:57.049Z,2.50
2022-10-23T12:48:26.370Z,12.00
2022-10-23T12:50:57.589Z,2.53
2022-10-23T12:53:25.913Z,2.50
2022-10-23T12:58:32.091Z,1.92
2022-10-23T13:01:02.200Z,3.72
2022-10-23T13:03:32.278Z,2.55
2022-10-23T13:06:03.761Z,1.60
2022-10-23T13:08:38.103Z,2.00
2022-10-23T13:11:07.664Z,2.22
2022-10-23T13:13:36.328Z,2.00
2022-10-23T13:16:15.753Z,1.70
2022-10-23T13:18:44.001Z,1.83
2022-10-23T13:21:21.207Z,1.70
2022-10-23T13:23:50.139Z,1.88
2022-10-23T13:26:27.172Z,1.73
2022-10-23T13:28:55.933Z,1.90
2022-10-23T13:31:30.896Z,2.08
2022-10-23T13:34:18.145Z,1.70
2022-10-23T13:37:03.493Z,1.80
2022-10-23T13:39:33.648Z,1.70
2022-10-23T13:42:12.144Z,1.75
2022-10-23T13:44:40.524Z,1.67
2022-10-23T13:47:13.709Z,1.92
2022-10-23T13:49:41.976Z,1.83
2022-10-23T13:52:14.806Z,1.95
2022-10-23T13:54:43.706Z,1.50
2022-10-23T13:57:14.057Z,1.85
2022-10-23T13:59:42.558Z,1.63
2022-10-23T14:02:19.918Z,1.95
2022-10-23T14:04:48.433Z,1.75
2022-10-23T14:07:18.293Z,2.38
2022-10-23T14:09:46.747Z,2.50
2022-10-23T14:12:14.987Z,1.80
2022-10-23T14:14:43.233Z,1.60
2022-10-23T14:17:11.449Z,2.10
2022-10-23T14:19:40.070Z,1.85
2022-10-23T14:22:08.422Z,1.65
2022-10-23T14:24:38.451Z,1.60
2022-10-23T14:27:06.731Z,1.90
2022-10-23T14:29:35.178Z,1.65
2022-10-23T14:32:03.590Z,1.98
2022-10-23T14:34:31.819Z,2.05
2022-10-23T14:37:15.196Z,1.67
2022-10-23T14:39:49.597Z,1.90
2022-10-23T14:42:18.626Z,1.48
2022-10-23T14:44:46.880Z,1.70
2022-10-23T14:47:15.135Z,1.40
2022-10-23T14:49:43.794Z,2.03
2022-10-23T14:52:12.043Z,2.08
2022-10-23T14:54:40.654Z,2.00
2022-10-23T14:57:10.707Z,2.30
2022-10-23T14:59:39.194Z,1.95
2022-10-23T15:02:07.554Z,2.13
2022-10-23T15:04:35.837Z,2.05
2022-10-23T15:07:04.316Z,2.20
2022-10-23T15:09:35.253Z,2.22
2022-10-23T15:12:04.255Z,2.15
2022-10-23T15:14:34.026Z,1.70
2022-10-23T15:17:02.963Z,2.30
2022-10-23T15:19:31.433Z,2.10
2022-10-23T15:21:59.643Z,2.25
2022-10-23T15:24:27.949Z,2.20
2022-10-23T15:26:57.154Z,2.00
2022-10-23T15:29:25.490Z,2.53
2022-10-23T15:31:58.295Z,2.03
2022-10-23T15:34:27.993Z,2.30
2022-10-23T15:36:57.997Z,2.58
2022-10-23T15:39:28.418Z,2.65
2022-10-23T15:41:57.941Z,2.80
2022-10-23T15:44:28.985Z,2.50
2022-10-23T15:46:59.345Z,2.10
2022-10-23T15:49:29.442Z,2.40
2022-10-23T15:51:58.147Z,2.03
2022-10-23T15:54:29.270Z,2.90
2022-10-23T15:57:00.619Z,2.53
2022-10-23T15:59:29.868Z,2.33
2022-10-23T16:02:00.091Z,2.95
2022-10-23T16:04:29.693Z,3.38
2022-10-23T16:06:58.047Z,2.72
2022-10-23T16:09:26.410Z,2.40
2022-10-23T16:11:54.722Z,2.88
2022-10-23T16:14:22.976Z,2.95
2022-10-23T16:16:51.253Z,2.30
2022-10-23T16:19:20.919Z,3.17
2022-10-23T16:21:49.369Z,3.38
2022-10-23T16:24:17.582Z,2.92
2022-10-23T16:26:50.439Z,3.00
2022-10-23T16:29:18.654Z,2.72
2022-10-23T16:31:46.959Z,2.40
2022-10-23T16:34:15.320Z,2.80
2022-10-23T16:36:45.191Z,3.00
2022-10-23T16:39:15.290Z,2.88
2022-10-23T16:41:43.729Z,2.83
2022-10-23T16:44:12.016Z,2.70
2022-10-23T16:46:40.749Z,2.63
2022-10-23T16:49:09.624Z,3.00
2022-10-23T16:51:37.929Z,3.15
2022-10-23T16:54:07.704Z,3.28
2022-10-23T16:56:35.970Z,3.40
2022-10-23T16:59:04.332Z,2.63
2022-10-23T17:01:33.782Z,8.82
2022-10-23T17:04:02.356Z,3.15
2022-10-23T17:06:32.556Z,2.70
2022-10-23T17:09:02.297Z,2.70
2022-10-23T17:11:34.310Z,3.15
2022-10-23T17:14:04.543Z,3.38
2022-10-23T17:16:35.660Z,3.20
2022-10-23T17:19:15.829Z,3.55
2022-10-23T17:21:54.220Z,3.30
2022-10-23T17:24:22.981Z,3.45
2022-10-23T17:26:52.702Z,3.28
2022-10-23T17:29:21.649Z,2.92
2022-10-23T17:31:51.635Z,3.47
2022-10-23T17:34:22.454Z,3.42
2022-10-23T17:36:57.375Z,3.28
2022-10-23T17:39:27.429Z,4.55
2022-10-23T17:41:58.246Z,3.97
2022-10-23T17:44:26.834Z,3.55
2022-10-23T17:46:56.270Z,3.67
2022-10-23T17:49:24.700Z,4.00
2022-10-23T17:51:54.395Z,3.58
2022-10-23T17:54:23.388Z,4.05
2022-10-23T17:56:51.733Z,3.67
2022-10-23T17:59:21.884Z,3.78
2022-10-23T18:01:51.156Z,3.65
2022-10-23T18:04:21.213Z,3.95
2022-10-23T18:06:52.683Z,4.32
2022-10-23T18:09:22.797Z,3.50
2022-10-23T18:11:51.933Z,3.95
2022-10-23T18:14:24.343Z,3.47
2022-10-23T18:16:55.010Z,5.15
2022-10-23T18:19:23.362Z,3.97
2022-10-23T18:21:51.580Z,5.07
2022-10-23T18:24:20.482Z,4.78
2022-10-23T18:26:49.342Z,5.65
2022-10-23T18:29:18.927Z,4.13
2022-10-23T18:31:49.369Z,3.72
2022-10-23T18:34:19.287Z,3.53
2022-10-23T18:36:48.370Z,3.53
2022-10-23T18:39:22.449Z,3.92
2022-10-23T18:41:53.438Z,4.30
2022-10-23T18:44:22.969Z,4.18
2022-10-23T18:46:53.524Z,3.80
2022-10-23T18:49:21.766Z,4.22
2022-10-23T18:51:51.067Z,3.28
2022-10-23T18:54:21.174Z,3.70
2022-10-23T18:56:49.877Z,3.30
2022-10-23T18:59:20.378Z,3.67
2022-10-23T19:01:49.316Z,3.42
2022-10-23T19:04:19.467Z,3.45
2022-10-23T19:06:51.840Z,3.38
2022-10-23T19:09:20.574Z,3.60
2022-10-23T19:11:48.781Z,3.28
2022-10-23T19:14:17.031Z,3.67
2022-10-23T19:16:53.521Z,3.08
2022-10-23T19:19:26.841Z,4.05
2022-10-23T19:21:55.663Z,3.00
2022-10-23T19:24:27.178Z,3.42
2022-10-23T19:26:56.355Z,3.58
2022-10-23T19:29:26.766Z,3.15
2022-10-23T19:31:55.416Z,3.50
2022-10-23T19:34:25.454Z,3.58
2022-10-23T19:36:54.736Z,3.30
2022-10-23T19:39:23.482Z,3.40
2022-10-23T19:41:52.066Z,3.40
2022-10-23T19:44:21.050Z,3.63
2022-10-23T19:46:49.716Z,3.42
2022-10-23T19:49:18.361Z,3.50
2022-10-23T19:51:51.211Z,3.15
2022-10-23T19:54:20.269Z,3.17
2022-10-23T19:56:48.533Z,3.40
2022-10-23T19:59:17.195Z,5.53
2022-10-23T20:01:47.898Z,3.80
2022-10-23T20:04:17.838Z,3.17
2022-10-23T20:06:47.490Z,3.20
2022-10-23T20:09:15.745Z,3.45
2022-10-23T20:11:45.501Z,2.92
2022-10-23T20:14:14.354Z,3.13
2022-10-23T20:16:46.038Z,3.15
2022-10-23T20:21:50.938Z,3.28
2022-10-23T20:24:20.807Z,3.20
2022-10-23T20:26:51.138Z,3.30
2022-10-23T20:29:19.745Z,3.80
2022-10-23T20:31:48.203Z,3.40
2022-10-23T20:34:16.408Z,3.25
2022-10-23T20:36:47.318Z,3.75
2022-10-23T20:39:19.356Z,3.70
2022-10-23T20:41:48.472Z,3.58
2022-10-23T20:44:18.878Z,3.47
2022-10-23T20:46:47.435Z,3.20
2022-10-23T20:49:16.591Z,3.53
2022-10-23T20:51:45.652Z,3.45
2022-10-23T20:54:14.231Z,3.40
2022-10-23T20:56:44.078Z,3.60
2022-10-23T20:59:14.409Z,3.70
2022-10-23T21:01:44.397Z,3.92
2022-10-23T21:04:14.375Z,3.63
2022-10-23T21:06:57.785Z,3.20
2022-10-23T21:09:31.991Z,3.50
2022-10-23T21:12:01.853Z,3.70
2022-10-23T21:14:30.915Z,4.35
2022-10-23T21:16:59.140Z,3.58
2022-10-23T21:19:27.469Z,3.58
2022-10-23T21:21:55.734Z,3.65
2022-10-23T21:24:24.720Z,3.72
2022-10-23T21:26:53.244Z,3.63
2022-10-23T21:29:22.878Z,3.72
2022-10-23T21:31:55.939Z,4.20
2022-10-23T21:34:25.135Z,11.38
2022-10-23T21:37:12.399Z,4.82
2022-10-23T21:39:42.483Z,3.95
2022-10-23T21:42:10.745Z,8.20
2022-10-23T21:44:40.434Z,4.15
2022-10-23T21:47:08.722Z,3.58
2022-10-23T21:49:37.110Z,4.28
2022-10-23T21:52:05.462Z,3.80
2022-10-23T21:54:33.910Z,3.90
2022-10-23T21:57:03.365Z,4.47
2022-10-23T21:59:35.585Z,3.75
2022-10-23T22:02:06.132Z,3.97
2022-10-23T22:04:35.197Z,4.03
2022-10-23T22:07:03.951Z,3.85
2022-10-23T22:09:33.050Z,4.43
2022-10-23T22:12:02.336Z,4.53
2022-10-23T22:14:30.565Z,4.18
2022-10-23T22:16:59.162Z,4.10
2022-10-23T22:19:29.154Z,5.18
2022-10-23T22:21:57.490Z,4.38
2022-10-23T22:24:26.073Z,4.32
2022-10-23T22:26:56.668Z,4.60
2022-10-23T22:29:27.038Z,5.22
2022-10-23T22:31:55.601Z,4.22
2022-10-23T22:34:47.979Z,4.10
2022-10-23T22:37:15.646Z,4.32
2022-10-23T22:39:44.014Z,4.05
2022-10-23T22:42:12.291Z,3.90
2022-10-23T22:44:40.568Z,4.22
2022-10-23T22:47:08.790Z,3.75
2022-10-23T22:49:37.764Z,4.32
2022-10-23T22:52:06.189Z,4.07
2022-10-23T22:54:36.029Z,4.68
2022-10-23T22:57:04.397Z,5.65
2022-10-23T22:59:32.749Z,4.05
2022-10-23T23:02:00.993Z,4.00
2022-10-23T23:04:38.314Z,4.15
2022-10-23T23:07:08.370Z,4.40
2022-10-23T23:09:39.573Z,4.70
2022-10-23T23:12:08.760Z,3.95
2022-10-23T23:14:37.323Z,4.32
2022-10-23T23:17:06.023Z,3.95
2022-10-23T23:19:34.576Z,3.85
2022-10-23T23:22:04.309Z,3.88
2022-10-23T23:24:32.746Z,3.47
2022-10-23T23:27:02.397Z,3.88
2022-10-23T23:29:30.795Z,8.93
2022-10-23T23:31:59.511Z,4.10
2022-10-23T23:34:27.825Z,4.03
2022-10-23T23:36:56.094Z,4.22
2022-10-23T23:39:26.157Z,4.30
2022-10-23T23:41:54.797Z,4.50
2022-10-23T23:44:24.608Z,3.78
2022-10-23T23:46:52.824Z,4.00
2022-10-23T23:49:21.121Z,4.40
2022-10-23T23:51:49.814Z,4.18
2022-10-23T23:54:18.254Z,3.80
2022-10-23T23:56:46.598Z,3.80
2022-10-23T23:59:14.778Z,3.85
